createdAt,value
2022-12-12T00:02:18.560Z,98127.60
2022-12-12T00:05:20.564Z,98127.59
2022-12-12T00:08:22.431Z,98120.34
2022-12-12T00:11:25.455Z,98125.74
2022-12-12T00:14:27.245Z,98130.31
2022-12-12T00:17:28.988Z,98133.20
2022-12-12T00:20:30.961Z,98131.19
2022-12-12T00:23:32.745Z,98129.48
2022-12-12T00:26:35.284Z,98127.81
2022-12-12T00:29:37.012Z,98127.81
2022-12-12T00:32:38.709Z,98131.21
2022-12-12T00:35:40.311Z,98134.25
2022-12-12T00:38:41.958Z,98132.39
2022-12-12T00:41:44.003Z,98137.80
2022-12-12T00:44:45.701Z,98137.46
2022-12-12T00:47:47.411Z,98136.45
2022-12-12T00:50:49.205Z,98134.05
2022-12-12T00:53:50.905Z,98132.38
2022-12-12T00:56:52.607Z,98130.69
2022-12-12T00:59:58.263Z,98130.84
2022-12-12T01:03:00.038Z,98133.37
2022-12-12T01:06:02.095Z,98131.19
2022-12-12T01:09:04.195Z,98127.14
2022-12-12T01:12:06.052Z,98120.20
2022-12-12T01:15:09.325Z,98114.94
2022-12-12T01:18:11.188Z,98112.56
2022-12-12T01:21:15.495Z,98112.40
2022-12-12T01:24:17.161Z,98112.55
2022-12-12T01:27:18.860Z,98110.02
2022-12-12T01:30:22.351Z,98108.33
2022-12-12T01:33:24.206Z,98102.40
2022-12-12T01:36:25.814Z,98100.00
2022-12-12T01:39:27.499Z,98095.91
2022-12-12T01:42:29.732Z,98095.39
2022-12-12T01:45:59.725Z,98098.60
2022-12-12T01:49:06.467Z,98094.22
2022-12-12T01:52:16.611Z,98094.38
2022-12-12T01:55:22.756Z,98095.93
2022-12-12T01:58:25.133Z,98093.58
2022-12-12T02:01:27.101Z,98099.50
2022-12-12T02:04:28.940Z,98102.90
2022-12-12T02:07:30.757Z,98098.85
2022-12-12T02:10:32.313Z,98103.61
2022-12-12T02:13:34.961Z,98102.77
2022-12-12T02:17:26.637Z,98097.05
2022-12-12T02:20:47.198Z,98099.94
2022-12-12T02:24:04.027Z,98102.16
2022-12-12T02:27:50.332Z,98099.11
2022-12-12T02:31:37.082Z,98094.04
2022-12-12T02:34:50.515Z,98088.13
2022-12-12T02:37:59.567Z,98093.21
2022-12-12T02:41:07.550Z,98094.08
2022-12-12T02:44:26.664Z,98091.89
2022-12-12T02:47:31.028Z,98093.05
2022-12-12T02:50:33.199Z,98096.27
2022-12-12T02:53:35.085Z,98093.75
2022-12-12T02:56:50.731Z,98090.20
2022-12-12T03:00:07.525Z,98091.05
2022-12-12T03:03:52.678Z,98093.09
2022-12-12T03:07:25.750Z,98088.55
2022-12-12T03:10:46.579Z,98086.86
2022-12-12T03:13:57.599Z,98085.16
2022-12-12T03:17:09.965Z,98082.47
2022-12-12T03:20:23.184Z,98080.95
2022-12-12T03:23:28.582Z,98077.91
2022-12-12T03:26:34.286Z,98076.39
2022-12-12T03:30:01.885Z,98077.77
2022-12-12T03:33:10.847Z,98076.39
2022-12-12T03:36:19.312Z,98080.42
2022-12-12T03:39:29.035Z,98083.48
2022-12-12T03:42:39.254Z,98083.31
2022-12-12T03:46:07.595Z,98079.77
2022-12-12T03:49:14.609Z,98080.77
2022-12-12T03:52:27.058Z,98082.14
2022-12-12T03:55:45.209Z,98085.67
2022-12-12T03:58:50.320Z,98080.27
2022-12-12T04:02:07.915Z,98078.41
2022-12-12T04:05:20.977Z,98077.76
2022-12-12T04:08:22.786Z,98078.93
2022-12-12T04:11:43.340Z,98077.08
2022-12-12T04:14:59.689Z,98076.07
2022-12-12T04:18:16.287Z,98076.59
2022-12-12T04:22:02.732Z,98081.33
2022-12-12T04:25:11.384Z,98081.51
2022-12-12T04:28:13.702Z,98082.53
2022-12-12T04:31:16.638Z,98080.85
2022-12-12T04:34:28.671Z,98087.78
2022-12-12T04:37:34.083Z,98085.43
2022-12-12T04:40:41.469Z,98089.48
2022-12-12T04:43:44.539Z,98089.84
2022-12-12T04:46:48.633Z,98087.48
2022-12-12T04:49:52.823Z,98089.34
2022-12-12T04:52:56.181Z,98090.35
2022-12-12T04:56:00.119Z,98091.02
2022-12-12T04:59:03.371Z,98088.84
2022-12-12T05:02:16.045Z,98092.90
2022-12-12T05:05:22.064Z,98096.55
2022-12-12T05:08:28.270Z,98095.55
2022-12-12T05:11:30.287Z,98098.06
2022-12-12T05:14:32.078Z,98103.23
2022-12-12T05:17:35.650Z,98100.76
2022-12-12T05:20:37.480Z,98104.01
2022-12-12T05:23:39.184Z,98099.48
2022-12-12T05:26:41.548Z,98096.83
2022-12-12T05:29:43.338Z,98097.36
2022-12-12T05:32:45.057Z,98095.54
2022-12-12T05:35:46.745Z,98096.14
2022-12-12T05:38:48.578Z,98091.84
2022-12-12T05:41:50.176Z,98093.44
2022-12-12T05:44:51.942Z,98098.80
2022-12-12T05:47:53.545Z,98099.98
2022-12-12T05:50:55.635Z,98105.78
2022-12-12T05:53:57.265Z,98106.35
2022-12-12T05:56:59.079Z,98106.73
2022-12-12T06:00:00.900Z,98107.07
2022-12-12T06:03:02.815Z,98108.08
2022-12-12T06:06:04.707Z,98115.88
2022-12-12T06:09:06.294Z,98114.90
2022-12-12T06:12:08.057Z,98120.34
2022-12-12T06:15:10.416Z,98124.59
2022-12-12T06:18:12.382Z,98124.81
2022-12-12T06:21:14.044Z,98137.52
2022-12-12T06:24:15.845Z,98134.20
2022-12-12T06:27:17.494Z,98135.16
2022-12-12T06:30:19.499Z,98129.06
2022-12-12T06:33:21.096Z,98129.77
2022-12-12T06:36:24.339Z,98135.14
2022-12-12T06:39:26.337Z,98137.84
2022-12-12T06:42:28.189Z,98137.34
2022-12-12T06:45:29.911Z,98137.85
2022-12-12T06:48:32.793Z,98143.27
2022-12-12T06:51:37.409Z,98143.08
2022-12-12T06:54:39.010Z,98142.39
2022-12-12T06:57:40.636Z,98142.88
2022-12-12T07:00:42.422Z,98143.02
2022-12-12T07:03:44.369Z,98139.11
2022-12-12T07:06:45.992Z,98139.41
2022-12-12T07:09:47.849Z,98140.09
2022-12-12T07:12:53.285Z,98141.08
2022-12-12T07:15:57.951Z,98140.39
2022-12-12T07:18:59.856Z,98143.59
2022-12-12T07:22:07.457Z,98144.92
2022-12-12T07:25:11.640Z,98143.02
2022-12-12T07:28:14.589Z,98145.21
2022-12-12T07:31:19.287Z,98147.55
2022-12-12T07:34:20.984Z,98153.42
2022-12-12T07:37:22.775Z,98155.59
2022-12-12T07:40:24.513Z,98150.98
2022-12-12T07:43:26.847Z,98152.83
2022-12-12T07:46:29.397Z,98153.48
2022-12-12T07:49:31.156Z,98154.79
2022-12-12T07:52:33.002Z,98152.05
2022-12-12T07:55:34.907Z,98155.25
2022-12-12T07:58:37.473Z,98153.87
2022-12-12T08:01:39.796Z,98152.34
2022-12-12T08:04:42.064Z,98151.29
2022-12-12T08:07:44.065Z,98150.55
2022-12-12T08:10:45.790Z,98153.91
2022-12-12T08:13:48.136Z,98157.08
2022-12-12T08:16:49.864Z,98159.06
2022-12-12T08:19:51.735Z,98163.25
2022-12-12T08:22:53.741Z,98169.98
2022-12-12T08:25:55.436Z,98169.91
2022-12-12T08:28:58.011Z,98173.29
2022-12-12T08:31:59.840Z,98174.44
2022-12-12T08:35:01.377Z,98173.37
2022-12-12T08:38:03.993Z,98174.20
2022-12-12T08:41:05.701Z,98172.52
2022-12-12T08:44:08.202Z,98174.37
2022-12-12T08:47:10.785Z,98176.20
2022-12-12T08:50:12.794Z,98175.66
2022-12-12T08:53:14.505Z,98182.23
2022-12-12T08:56:17.789Z,98177.11
2022-12-12T08:59:19.978Z,98181.30
2022-12-12T09:02:21.833Z,98181.64
2022-12-12T09:05:23.716Z,98178.92
2022-12-12T09:08:25.378Z,98179.10
2022-12-12T09:11:27.375Z,98182.30
2022-12-12T09:14:29.109Z,98180.95
2022-12-12T09:17:30.931Z,98177.70
2022-12-12T09:20:32.815Z,98178.89
2022-12-12T09:23:35.065Z,98183.25
2022-12-12T09:26:37.914Z,98185.73
2022-12-12T09:29:40.189Z,98181.11
2022-12-12T09:32:42.249Z,98179.58
2022-12-12T09:35:44.399Z,98182.73
2022-12-12T09:38:46.134Z,98178.10
2022-12-12T09:41:47.851Z,98181.77
2022-12-12T09:44:54.730Z,98179.57
2022-12-12T09:48:00.532Z,98176.80
2022-12-12T09:51:02.707Z,98180.11
2022-12-12T09:54:04.416Z,98181.92
2022-12-12T09:57:24.941Z,98184.09
2022-12-12T10:00:27.401Z,98180.62
2022-12-12T10:03:50.968Z,98182.55
2022-12-12T10:07:04.813Z,98181.50
2022-12-12T10:10:25.951Z,98184.46
2022-12-12T10:13:30.137Z,98184.05
2022-12-12T10:16:32.792Z,98185.47
2022-12-12T10:19:42.820Z,98186.86
2022-12-12T10:22:56.857Z,98182.51
2022-12-12T10:26:24.380Z,98175.65
2022-12-12T10:29:27.097Z,98174.05
2022-12-12T10:32:58.324Z,98175.16
2022-12-12T10:36:12.775Z,98173.40
2022-12-12T10:39:24.485Z,98173.70
2022-12-12T10:42:43.389Z,98173.29
2022-12-12T10:45:59.329Z,98174.64
2022-12-12T10:49:01.145Z,98174.58
2022-12-12T10:52:05.300Z,98173.36
2022-12-12T10:55:36.313Z,98172.66
2022-12-12T10:58:46.319Z,98172.17
2022-12-12T11:02:10.169Z,98168.14
2022-12-12T11:05:25.033Z,98168.16
2022-12-12T11:08:31.899Z,98173.22
2022-12-12T11:11:34.191Z,98165.91
2022-12-12T11:14:45.921Z,98168.75
2022-12-12T11:17:50.119Z,98169.25
2022-12-12T11:21:02.123Z,98170.64
2022-12-12T11:24:08.381Z,98166.49
2022-12-12T11:27:19.786Z,98170.63
2022-12-12T11:30:32.876Z,98167.52
2022-12-12T11:33:39.541Z,98163.55
2022-12-12T11:36:41.920Z,98165.83
2022-12-12T11:39:46.145Z,98168.42
2022-12-12T11:42:47.873Z,98168.30
2022-12-12T11:45:59.875Z,98170.88
2022-12-12T11:49:06.008Z,98170.05
2022-12-12T11:52:30.672Z,98167.71
2022-12-12T11:55:58.124Z,98169.70
2022-12-12T11:59:23.442Z,98175.52
2022-12-12T12:02:47.081Z,98173.84
2022-12-12T12:06:17.895Z,98178.61
2022-12-12T12:09:47.646Z,98175.29
2022-12-12T12:13:02.601Z,98175.36
2022-12-12T12:16:22.464Z,98175.05
2022-12-12T12:19:39.324Z,98175.73
2022-12-12T12:23:04.545Z,98173.06
2022-12-12T12:26:11.772Z,98173.96
2022-12-12T12:29:25.843Z,98172.12
2022-12-12T12:32:44.082Z,98179.22
2022-12-12T12:36:01.531Z,98174.16
2022-12-12T12:39:30.001Z,98178.77
2022-12-12T12:42:46.179Z,98175.20
2022-12-12T12:46:00.009Z,98176.91
2022-12-12T12:49:27.849Z,98179.98
2022-12-12T12:53:12.225Z,98173.91
2022-12-12T12:56:26.523Z,98171.73
2022-12-12T12:59:34.859Z,98171.58
2022-12-12T13:03:11.182Z,98176.00
2022-12-12T13:06:19.003Z,98183.97
2022-12-12T13:09:44.848Z,98183.33
2022-12-12T13:12:59.019Z,98187.58
2022-12-12T13:16:20.361Z,98190.98
2022-12-12T13:19:35.672Z,98193.04
2022-12-12T13:22:52.629Z,98197.62
2022-12-12T13:25:58.456Z,98202.39
2022-12-12T13:29:04.610Z,98199.69
2022-12-12T13:32:37.758Z,98202.25
2022-12-12T13:35:51.169Z,98203.30
2022-12-12T13:38:57.986Z,98203.66
2022-12-12T13:42:05.350Z,98203.52
2022-12-12T13:45:32.220Z,98210.15
2022-12-12T13:48:46.160Z,98213.05
2022-12-12T13:51:48.605Z,98211.04
2022-12-12T13:54:50.425Z,98214.80
2022-12-12T13:58:06.779Z,98215.66
2022-12-12T14:01:27.238Z,98218.57
2022-12-12T14:04:32.222Z,98222.32
2022-12-12T14:07:34.260Z,98224.20
2022-12-12T14:10:48.110Z,98229.30
2022-12-12T14:13:51.089Z,98228.80
2022-12-12T14:16:54.767Z,98231.36
2022-12-12T14:19:58.656Z,98235.45
2022-12-12T14:23:09.153Z,98234.42
2022-12-12T14:26:29.003Z,98237.33
2022-12-12T14:29:33.173Z,98237.51
2022-12-12T14:32:43.882Z,98237.35
2022-12-12T14:35:53.802Z,98242.94
2022-12-12T14:39:21.874Z,98245.83
2022-12-12T14:43:20.438Z,98245.84
2022-12-12T14:45:56.969Z,98244.48
2022-12-12T14:49:03.752Z,98244.15
2022-12-12T14:52:05.604Z,98247.71
2022-12-12T14:55:07.471Z,98250.09
2022-12-12T14:58:09.287Z,98249.94
2022-12-12T15:01:10.890Z,98253.34
2022-12-12T15:04:15.546Z,98254.02
2022-12-12T15:07:29.116Z,98254.72
2022-12-12T15:10:30.975Z,98258.12
2022-12-12T15:13:32.692Z,98264.02
2022-12-12T15:16:40.692Z,98264.20
2022-12-12T15:19:49.223Z,98263.52
2022-12-12T15:22:57.885Z,98268.44
2022-12-12T15:25:59.519Z,98270.98
2022-12-12T15:29:01.150Z,98273.02
2022-12-12T15:32:06.663Z,98273.52
2022-12-12T15:35:08.439Z,98274.04
2022-12-12T15:38:13.464Z,98276.58
2022-12-12T15:41:21.388Z,98276.08
2022-12-12T15:44:23.193Z,98276.26
2022-12-12T15:47:25.103Z,98275.73
2022-12-12T15:50:41.910Z,98275.07
2022-12-12T15:53:49.573Z,98275.08
2022-12-12T15:56:51.226Z,98275.10
2022-12-12T16:00:32.341Z,98281.36
2022-12-12T16:03:34.540Z,98287.95
2022-12-12T16:06:45.190Z,98287.80
2022-12-12T16:10:01.651Z,98294.05
2022-12-12T16:13:24.952Z,98296.59
2022-12-12T16:16:43.961Z,98299.10
2022-12-12T16:20:01.430Z,98296.73
2022-12-12T16:23:22.322Z,98301.80
2022-12-12T16:26:24.031Z,98300.45
2022-12-12T16:29:26.679Z,98303.30
2022-12-12T16:32:28.483Z,98303.99
2022-12-12T16:35:30.262Z,98308.30
2022-12-12T16:38:32.019Z,98310.51
2022-12-12T16:41:33.907Z,98313.51
2022-12-12T16:44:35.535Z,98313.69
2022-12-12T16:47:37.222Z,98319.98
2022-12-12T16:50:38.945Z,98325.25
2022-12-12T16:53:40.672Z,98331.58
2022-12-12T16:56:43.195Z,98333.64
2022-12-12T16:59:45.169Z,98336.03
2022-12-12T17:02:46.921Z,98335.83
2022-12-12T17:05:48.717Z,98337.52
2022-12-12T17:08:50.302Z,98343.46
2022-12-12T17:11:52.221Z,98347.08
2022-12-12T17:14:53.843Z,98350.52
2022-12-12T17:17:56.093Z,98350.25
2022-12-12T17:20:58.013Z,98356.96
2022-12-12T17:23:59.674Z,98357.39
2022-12-12T17:27:01.431Z,98358.41
2022-12-12T17:30:04.803Z,98357.02
2022-12-12T17:33:18.842Z,98359.70
2022-12-12T17:36:21.332Z,98360.20
2022-12-12T17:39:23.115Z,98362.73
2022-12-12T17:42:24.938Z,98368.95
2022-12-12T17:45:26.612Z,98368.08
2022-12-12T17:48:33.398Z,98367.58
2022-12-12T17:51:35.198Z,98369.11
2022-12-12T17:54:36.887Z,98370.17
2022-12-12T17:57:38.585Z,98375.31
2022-12-12T18:00:40.333Z,98379.23
2022-12-12T18:03:42.901Z,98385.69
2022-12-12T18:06:44.630Z,98391.79
2022-12-12T18:09:46.298Z,98396.05
2022-12-12T18:12:51.594Z,98393.70
2022-12-12T18:15:57.928Z,98398.45
2022-12-12T18:19:00.548Z,98393.21
2022-12-12T18:22:02.643Z,98398.33
2022-12-12T18:25:05.112Z,98398.89
2022-12-12T18:28:06.859Z,98404.97
2022-12-12T18:31:08.690Z,98408.93
2022-12-12T18:34:10.596Z,98415.05
2022-12-12T18:37:12.306Z,98416.23
2022-12-12T18:40:14.361Z,98419.83
2022-12-12T18:43:16.374Z,98423.90
2022-12-12T18:46:20.588Z,98425.94
2022-12-12T18:49:22.451Z,98428.64
2022-12-12T18:52:24.064Z,98432.88
2022-12-12T18:55:30.107Z,98435.02
2022-12-12T18:58:32.081Z,98437.52
2022-12-12T19:01:36.175Z,98443.62
2022-12-12T19:04:39.047Z,98445.20
2022-12-12T19:07:41.592Z,98449.63
2022-12-12T19:10:43.282Z,98446.05
2022-12-12T19:13:46.529Z,98450.79
2022-12-12T19:16:48.284Z,98456.72
2022-12-12T19:19:50.706Z,98460.10
2022-12-12T19:22:52.430Z,98466.68
2022-12-12T19:25:54.049Z,98472.92
2022-12-12T19:28:59.548Z,98475.45
2022-12-12T19:32:01.256Z,98479.33
2022-12-12T19:35:02.975Z,98485.41
2022-12-12T19:38:04.689Z,98486.08
2022-12-12T19:41:07.704Z,98488.10
2022-12-12T19:44:12.832Z,98495.55
2022-12-12T19:47:14.658Z,98490.45
2022-12-12T19:50:16.685Z,98498.54
2022-12-12T19:53:18.557Z,98501.27
2022-12-12T19:56:22.295Z,98501.05
2022-12-12T19:59:23.899Z,98504.27
2022-12-12T20:02:25.598Z,98505.58
2022-12-12T20:05:27.601Z,98508.72
2022-12-12T20:08:31.104Z,98517.88
2022-12-12T20:11:32.816Z,98515.52
2022-12-12T20:14:36.579Z,98522.10
2022-12-12T20:17:38.420Z,98524.63
2022-12-12T20:20:40.232Z,98527.64
2022-12-12T20:23:47.058Z,98530.83
2022-12-12T20:26:49.168Z,98536.06
2022-12-12T20:29:50.762Z,98536.88
2022-12-12T20:32:52.479Z,98541.61
2022-12-12T20:35:54.104Z,98541.10
2022-12-12T20:38:57.373Z,98542.79
2022-12-12T20:41:59.158Z,98545.83
2022-12-12T20:45:02.031Z,98548.38
2022-12-12T20:48:07.549Z,98551.44
2022-12-12T20:51:45.544Z,98556.87
2022-12-12T20:54:33.647Z,98559.45
2022-12-12T20:57:35.308Z,98559.48
2022-12-12T21:00:38.417Z,98564.55
2022-12-12T21:03:41.197Z,98568.96
2022-12-12T21:06:48.163Z,98572.67
2022-12-12T21:09:50.230Z,98577.39
2022-12-12T21:12:51.893Z,98578.04
2022-12-12T21:15:53.964Z,98584.91
2022-12-12T21:18:56.936Z,98584.02
2022-12-12T21:21:58.579Z,98593.96
2022-12-12T21:25:00.308Z,98592.79
2022-12-12T21:28:02.006Z,98596.94
2022-12-12T21:31:06.496Z,98601.04
2022-12-12T21:34:08.507Z,98603.53
2022-12-12T21:37:10.196Z,98607.49
2022-12-12T21:40:12.361Z,98610.14
2022-12-12T21:43:14.012Z,98610.92
2022-12-12T21:46:21.784Z,98613.63
2022-12-12T21:49:26.894Z,98613.08
2022-12-12T21:52:28.879Z,98611.03
2022-12-12T21:55:30.761Z,98614.41
2022-12-12T21:58:32.562Z,98614.23
2022-12-12T22:01:34.425Z,98614.41
2022-12-12T22:04:35.984Z,98616.79
2022-12-12T22:07:37.574Z,98620.19
2022-12-12T22:10:39.193Z,98625.78
2022-12-12T22:13:42.730Z,98629.01
2022-12-12T22:16:45.088Z,98629.02
2022-12-12T22:19:47.215Z,98629.35
2022-12-12T22:22:48.840Z,98630.71
2022-12-12T22:25:50.563Z,98631.05
2022-12-12T22:28:54.429Z,98633.44
2022-12-12T22:31:56.154Z,98632.25
2022-12-12T22:34:58.723Z,98639.90
2022-12-12T22:38:00.361Z,98639.06
2022-12-12T22:41:02.037Z,98642.66
2022-12-12T22:44:06.044Z,98644.38
2022-12-12T22:47:07.698Z,98649.48
2022-12-12T22:50:10.077Z,98649.33
2022-12-12T22:53:13.242Z,98652.21
2022-12-12T22:56:15.739Z,98655.09
2022-12-12T22:59:17.424Z,98658.51
2022-12-12T23:02:24.803Z,98664.13
2022-12-12T23:05:27.300Z,98668.40
2022-12-12T23:08:29.067Z,98674.50
2022-12-12T23:11:31.076Z,98669.25
2022-12-12T23:14:32.881Z,98674.00
2022-12-12T23:17:34.607Z,98673.34
2022-12-12T23:20:36.282Z,98676.59
2022-12-12T23:23:38.881Z,98676.09
2022-12-12T23:26:41.511Z,98683.25
2022-12-12T23:29:43.219Z,98687.02
2022-12-12T23:32:44.943Z,98690.60
2022-12-12T23:35:49.755Z,98695.06
2022-12-12T23:38:59.822Z,98696.27
2022-12-12T23:42:01.581Z,98697.33
2022-12-12T23:45:03.367Z,98697.35
2022-12-12T23:48:05.890Z,98700.40
2022-12-12T23:51:07.547Z,98705.85
2022-12-12T23:54:10.547Z,98712.65
2022-12-12T23:57:12.289Z,98711.50
